Time;durP1;ratioP1;P1;durP2;ratioP2;P2;SDS_P1;SDS_P2;PMS_P1;PMS_P2;Temp;Humidity;BMP_temperature;BMP_pressure;BME280_temperature;BME280_humidity;BME280_pressure;Samples;Min_cycle;Max_cycle;Signal;HPM_P1;HPM_P2
2021/10/08 00:00:28;;;;;;;14.70;7.67;;;;;;;5.31;53.81;102381.33;1693123;82;20942;-65
2021/10/08 00:02:55;;;;;;;12.00;7.92;;;;;;;5.28;53.86;102382.39;1657204;86;21490;-64
2021/10/08 00:05:21;;;;;;;12.80;7.50;;;;;;;5.25;53.96;102375.98;1691760;83;20982;-63
2021/10/08 00:07:47;;;;;;;11.53;6.53;;;;;;;5.23;54.10;102383.17;1657104;86;21010;-64
2021/10/08 00:10:15;;;;;;;11.70;7.97;;;;;;;5.18;54.18;102383.50;1657215;86;20967;-63
2021/10/08 00:12:44;;;;;;;16.47;8.67;;;;;;;5.16;54.22;102378.78;1700545;84;20982;-65
2021/10/08 00:15:10;;;;;;;10.50;7.08;;;;;;;5.13;54.43;102380.78;1707797;83;20932;-66
2021/10/08 00:17:36;;;;;;;8.38;7.33;;;;;;;5.07;54.53;102385.52;1706683;84;20979;-65
2021/10/08 00:20:05;;;;;;;11.00;6.87;;;;;;;5.04;54.60;102376.95;1707556;84;20959;-64
2021/10/08 00:22:32;;;;;;;10.83;6.90;;;;;;;4.99;55.09;102376.40;1704675;83;21447;-65
2021/10/08 00:24:58;;;;;;;11.90;6.60;;;;;;;4.95;55.25;102385.48;1676804;85;21542;-65
2021/10/08 00:27:25;;;;;;;11.73;7.25;;;;;;;4.87;55.51;102380.23;1690662;83;21779;-64
2021/10/08 00:29:50;;;;;;;10.95;7.25;;;;;;;4.81;55.67;102380.64;1694461;83;21521;-65
2021/10/08 00:32:16;;;;;;;11.35;7.58;;;;;;;4.78;55.76;102379.50;1711703;83;21787;-65
2021/10/08 00:34:42;;;;;;;8.65;6.85;;;;;;;4.75;56.00;102379.73;1669037;84;21110;-65
2021/10/08 00:37:09;;;;;;;10.55;6.65;;;;;;;4.70;56.01;102379.65;1680944;84;20981;-64
2021/10/08 00:39:35;;;;;;;11.68;6.92;;;;;;;4.63;56.44;102379.19;1622055;87;20981;-64
2021/10/08 00:42:04;;;;;;;10.05;6.40;;;;;;;4.56;56.59;102380.52;1632506;86;21030;-65
2021/10/08 00:44:30;;;;;;;11.10;7.13;;;;;;;4.48;56.82;102375.29;1634362;86;21094;-65
2021/10/08 00:46:58;;;;;;;7.72;6.55;;;;;;;4.45;57.09;102379.91;1685066;84;20969;-64
2021/10/08 00:49:24;;;;;;;10.57;7.03;;;;;;;4.39;57.34;102376.33;1665455;85;20969;-65
2021/10/08 00:51:50;;;;;;;9.63;6.92;;;;;;;4.29;57.59;102380.03;1685037;84;20992;-64
2021/10/08 00:54:16;;;;;;;6.70;5.35;;;;;;;4.22;58.00;102379.59;1665715;84;20975;-65
2021/10/08 00:56:44;;;;;;;8.25;7.05;;;;;;;4.15;58.04;102380.91;1676280;84;20925;-65
2021/10/08 00:59:10;;;;;;;13.07;6.97;;;;;;;4.13;58.52;102380.16;1662651;84;21499;-64
2021/10/08 01:01:36;;;;;;;11.38;7.10;;;;;;;4.08;58.63;102382.23;1679188;83;21488;-64
2021/10/08 01:04:04;;;;;;;7.80;6.28;;;;;;;4.04;58.95;102381.56;1683657;84;21619;-64
2021/10/08 01:06:32;;;;;;;6.43;5.77;;;;;;;4.02;58.85;102379.98;1670436;84;21103;-65
2021/10/08 01:08:58;;;;;;;10.60;6.55;;;;;;;4.03;58.99;102386.94;1678717;84;21016;-64
2021/10/08 01:11:24;;;;;;;13.50;7.50;;;;;;;4.04;58.98;102377.61;1653474;82;21044;-65
2021/10/08 01:13:51;;;;;;;7.13;6.43;;;;;;;4.05;59.22;102375.81;1671503;84;21025;-64
2021/10/08 01:16:22;;;;;;;8.20;6.37;;;;;;;4.05;59.30;102378.45;1675471;84;20993;-64
2021/10/08 01:18:49;;;;;;;8.87;7.03;;;;;;;4.02;59.43;102376.02;1681388;84;21063;-63
2021/10/08 01:21:15;;;;;;;8.93;6.85;;;;;;;3.99;59.66;102379.68;1686191;84;21028;-65
2021/10/08 01:23:42;;;;;;;11.33;7.27;;;;;;;3.94;60.25;102380.91;1673957;84;20973;-63
2021/10/08 01:26:10;;;;;;;9.67;6.70;;;;;;;3.89;60.49;102381.20;1678587;84;21055;-62
2021/10/08 01:28:36;;;;;;;12.65;6.80;;;;;;;3.88;60.42;102382.13;1658372;84;21013;-64
2021/10/08 01:31:06;;;;;;;11.47;6.90;;;;;;;3.86;60.58;102378.30;1672961;84;21023;-64
2021/10/08 01:33:34;;;;;;;7.07;6.37;;;;;;;3.86;60.89;102382.70;1670465;84;21044;-63
2021/10/08 01:36:00;;;;;;;;;;;;;;;3.85;60.89;102378.39;1677172;84;21059;-65
2021/10/08 01:38:27;;;;;;;11.50;6.67;;;;;;;3.84;60.88;102381.95;1682857;84;20129;-64
2021/10/08 01:40:53;;;;;;;12.45;7.70;;;;;;;3.79;60.71;102384.05;1677322;84;21056;-63
2021/10/08 01:43:19;;;;;;;7.78;6.90;;;;;;;3.84;60.69;102380.63;1681208;84;21048;-66
2021/10/08 01:45:47;;;;;;;11.63;7.40;;;;;;;3.84;60.66;102382.82;1676353;83;21113;-65
2021/10/08 01:48:16;;;;;;;9.90;6.27;;;;;;;3.86;60.44;102382.70;1673560;84;22681;-61
2021/10/08 01:50:43;;;;;;;7.80;6.33;;;;;;;3.90;60.22;102381.59;1673484;84;21008;-63
2021/10/08 01:53:10;;;;;;;8.00;7.20;;;;;;;3.94;60.38;102386.19;1677640;84;20994;-63
2021/10/08 01:55:36;;;;;;;10.10;8.20;;;;;;;3.94;60.25;102389.70;1682110;84;21528;-63
2021/10/08 01:58:03;;;;;;;8.73;7.13;;;;;;;3.91;60.36;102395.15;1675598;84;21065;-64
2021/10/08 02:00:31;;;;;;;9.83;7.83;;;;;;;3.87;60.55;102393.65;1670980;84;21110;-67
2021/10/08 02:03:08;;;;;;;14.30;8.25;;;;;;;3.77;60.84;102402.60;1676181;84;21052;-64
2021/10/08 02:05:34;;;;;;;10.85;7.60;;;;;;;3.70;61.02;102399.95;1665033;84;21067;-63
2021/10/08 02:08:01;;;;;;;;;;;;;;;3.65;61.06;102396.25;1685700;84;21095;-64
2021/10/08 02:10:29;;;;;;;;;;;;;;;3.61;61.14;102398.70;1687022;84;20445;-63
2021/10/08 02:12:55;;;;;;;7.87;7.07;;;;;;;3.58;61.14;102398.03;1680909;81;20162;-64
2021/10/08 02:15:21;;;;;;;10.43;7.78;;;;;;;3.54;61.07;102404.44;1686638;85;21355;-66
2021/10/08 02:17:48;;;;;;;10.80;7.97;;;;;;;3.58;61.12;102400.23;1686357;84;20997;-64
2021/10/08 02:20:15;;;;;;;9.83;7.90;;;;;;;3.60;61.17;102404.94;1684365;84;21598;-63
2021/10/08 02:22:42;;;;;;;12.47;8.13;;;;;;;3.58;61.35;102405.95;1686229;84;21572;-65
2021/10/08 02:25:09;;;;;;;13.07;7.03;;;;;;;3.58;61.44;102410.78;1685729;84;21068;-65
2021/10/08 02:27:35;;;;;;;9.65;7.72;;;;;;;3.61;61.65;102402.66;1686419;84;21045;-64
2021/10/08 02:30:04;;;;;;;8.70;7.23;;;;;;;3.63;61.68;102407.84;1685697;84;21064;-66
2021/10/08 02:32:31;;;;;;;14.00;8.13;;;;;;;3.62;61.94;102409.65;1682686;85;21092;-63
2021/10/08 02:34:57;;;;;;;8.65;7.58;;;;;;;3.54;62.29;102416.31;1685516;83;21980;-65
2021/10/08 02:37:23;;;;;;;9.20;8.10;;;;;;;3.47;62.58;102414.52;1686222;84;21140;-65
2021/10/08 02:39:49;;;;;;;12.23;7.83;;;;;;;3.39;62.76;102411.02;1685803;84;21527;-65
2021/10/08 02:42:16;;;;;;;14.43;8.03;;;;;;;3.32;62.93;102405.73;1684038;84;21060;-64
2021/10/08 02:44:42;;;;;;;8.10;7.30;;;;;;;3.33;62.80;102418.43;1686079;83;21063;-64
2021/10/08 02:47:09;;;;;;;10.40;8.05;;;;;;;3.30;62.85;102416.36;1683883;84;21111;-64
2021/10/08 02:49:35;;;;;;;11.63;7.62;;;;;;;3.27;63.07;102416.52;1686369;84;21071;-65
2021/10/08 02:52:04;;;;;;;10.13;8.63;;;;;;;3.23;62.81;102424.72;1685756;84;21500;-63
2021/10/08 02:54:31;;;;;;;16.20;8.70;;;;;;;3.22;62.59;102426.51;1684506;84;21551;-63
2021/10/08 02:56:57;;;;;;;11.22;8.90;;;;;;;3.24;62.57;102431.22;1685993;83;21028;-63
2021/10/08 02:59:23;;;;;;;9.80;7.97;;;;;;;3.22;62.69;102426.95;1686237;84;21002;-64
2021/10/08 03:01:49;;;;;;;12.78;8.98;;;;;;;3.24;62.61;102425.95;1683286;84;21069;-64
2021/10/08 03:04:16;;;;;;;10.20;8.50;;;;;;;3.20;62.89;102433.66;1685851;84;21496;-63
2021/10/08 03:06:42;;;;;;;11.25;8.25;;;;;;;3.15;63.28;102430.43;1686056;84;21627;-65
2021/10/08 03:09:09;;;;;;;11.87;8.57;;;;;;;3.09;63.45;102433.43;1684768;84;21013;-64
2021/10/08 03:11:36;;;;;;;15.23;8.70;;;;;;;3.02;63.61;102438.66;1672525;84;21551;-64
2021/10/08 03:14:04;;;;;;;9.27;7.63;;;;;;;3.00;63.76;102440.53;1682843;84;21068;-65
2021/10/08 03:16:30;;;;;;;10.23;8.40;;;;;;;3.07;63.73;102444.05;1686616;84;21096;-64
2021/10/08 03:18:56;;;;;;;;;;;;;;;3.14;63.62;102441.89;1688983;85;20965;-65
2021/10/08 03:21:23;;;;;;;10.93;8.53;;;;;;;3.15;63.62;102444.92;1684465;84;20098;-65
2021/10/08 03:23:50;;;;;;;12.73;9.65;;;;;;;3.04;63.89;102447.33;1681885;82;21005;-64
2021/10/08 03:26:17;;;;;;;12.30;9.83;;;;;;;2.97;64.25;102449.92;1684995;84;21040;-65
2021/10/08 03:28:45;;;;;;;11.73;8.98;;;;;;;2.87;64.59;102445.17;1685771;84;21119;-66
2021/10/08 03:31:13;;;;;;;13.00;10.07;;;;;;;2.80;64.87;102458.30;1686242;84;21120;-66
2021/10/08 03:33:40;;;;;;;12.90;9.80;;;;;;;2.71;65.24;102454.85;1674655;84;21096;-67
2021/10/08 03:36:11;;;;;;;12.28;9.85;;;;;;;2.64;65.49;102459.63;1682089;84;21578;-64
2021/10/08 03:38:36;;;;;;;9.77;8.50;;;;;;;2.63;65.50;102463.66;1671657;84;21088;-70
2021/10/08 03:41:15;;;;;;;10.93;9.23;;;;;;;2.48;65.52;102446.91;1684819;84;21060;-65
2021/10/08 03:43:41;;;;;;;14.07;9.43;;;;;;;2.62;65.52;102467.20;1685987;84;21547;-66
2021/10/08 03:46:09;;;;;;;10.63;9.53;;;;;;;2.68;65.23;102474.80;1674908;84;21547;-65
2021/10/08 03:51:27;;;;;;;14.50;9.70;;;;;;;2.75;64.82;102468.27;1669586;85;21132;-67
2021/10/08 03:53:54;;;;;;;11.50;9.23;;;;;;;2.77;64.78;102478.23;1678408;84;20969;-66
2021/10/08 03:56:20;;;;;;;13.37;10.77;;;;;;;2.81;64.90;102479.77;1678049;84;21006;-65
2021/10/08 03:58:47;;;;;;;10.63;9.53;;;;;;;2.82;65.10;102474.86;1678296;84;21029;-64
2021/10/08 04:01:14;;;;;;;10.78;9.30;;;;;;;2.83;65.33;102475.25;1685912;83;21618;-67
2021/10/08 04:03:40;;;;;;;11.33;8.73;;;;;;;2.83;65.29;102469.98;1685675;85;21385;-65
2021/10/08 04:06:06;;;;;;;13.22;9.25;;;;;;;2.82;65.30;102464.80;1685766;84;21080;-64
2021/10/08 04:08:32;;;;;;;11.25;9.15;;;;;;;2.84;64.74;102463.77;1686232;85;21563;-65
2021/10/08 04:10:59;;;;;;;13.48;9.08;;;;;;;2.83;64.51;102464.72;1680069;84;21579;-65
2021/10/08 04:13:25;;;;;;;18.32;10.05;;;;;;;2.87;64.45;102464.92;1685825;81;21111;-66
2021/10/08 04:15:51;;;;;;;10.40;9.13;;;;;;;2.90;64.60;102466.53;1680713;84;21724;-63
2021/10/08 04:18:17;;;;;;;13.45;9.78;;;;;;;2.89;64.39;102471.43;1685846;85;21032;-64
2021/10/08 04:20:44;;;;;;;;;;;;;;;2.93;64.33;102471.16;1687587;84;21495;-64
2021/10/08 04:23:11;;;;;;;11.22;9.78;;;;;;;2.97;64.35;102468.36;1679959;84;20145;-64
2021/10/08 04:25:38;;;;;;;14.60;10.72;;;;;;;3.02;64.54;102471.59;1685572;84;21030;-65
2021/10/08 04:28:05;;;;;;;;;;;;;;;3.15;64.31;102475.23;1674535;85;21013;-65
2021/10/08 04:30:33;;;;;;;12.93;10.70;;;;;;;3.35;64.21;102475.38;1680779;84;20189;-65
2021/10/08 04:33:02;;;;;;;14.37;11.47;;;;;;;3.67;63.62;102479.25;1678703;84;21075;-66
2021/10/08 04:35:29;;;;;;;12.60;10.77;;;;;;;4.15;62.43;102481.69;1685634;84;21060;-63
2021/10/08 04:37:55;;;;;;;12.80;9.80;;;;;;;4.63;61.08;102480.44;1686090;84;21040;-64
2021/10/08 04:40:22;;;;;;;11.47;10.17;;;;;;;5.12;59.54;102483.02;1670297;85;21638;-63
2021/10/08 04:42:48;;;;;;;11.50;10.25;;;;;;;5.58;57.91;102479.98;1697965;84;21172;-63
2021/10/08 04:45:15;;;;;;;;;;;;;;;6.01;56.04;102485.04;1688606;83;21028;-63
2021/10/08 04:47:41;;;;;;;12.17;9.30;;;;;;;6.38;54.69;102479.80;1686024;85;20129;-63
2021/10/08 04:50:08;;;;;;;11.73;9.93;;;;;;;6.66;53.54;102480.98;1689915;84;21005;-65
2021/10/08 04:52:36;;;;;;;10.43;9.07;;;;;;;6.91;52.18;102482.70;1685907;85;21647;-63
2021/10/08 04:55:03;;;;;;;13.83;8.83;;;;;;;7.10;51.16;102477.76;1678381;84;21107;-63
2021/10/08 04:57:29;;;;;;;16.07;10.30;;;;;;;7.19;50.54;102478.86;1686229;85;21556;-63
2021/10/08 05:00:49;;;;;;;14.33;9.90;;;;;;;7.35;50.44;102478.59;1774607;77;22100;-65
2021/10/08 05:03:18;;;;;;;12.35;9.70;;;;;;;7.55;50.36;102481.92;1705325;83;21479;-65
2021/10/08 05:05:50;;;;;;;11.70;9.33;;;;;;;7.96;49.20;102489.83;1705037;83;21111;-63
2021/10/08 05:08:19;;;;;;;12.20;10.93;;;;;;;8.45;48.50;102485.18;1691118;83;20965;-64
2021/10/08 05:10:47;;;;;;;12.83;11.00;;;;;;;8.96;46.92;102489.92;1676444;84;21088;-64
2021/10/08 05:13:14;;;;;;;14.70;10.10;;;;;;;9.26;46.27;102490.20;1739161;81;21581;-64
2021/10/08 05:15:41;;;;;;;14.77;9.73;;;;;;;9.38;45.41;102493.20;1740297;81;21453;-64
2021/10/08 05:18:07;;;;;;;;;;;;;;;9.63;44.80;102495.14;1736889;81;20990;-65
2021/10/08 05:20:34;;;;;;;11.73;10.27;;;;;;;9.82;44.21;102491.76;1733064;81;20120;-66
2021/10/08 05:23:01;;;;;;;12.67;10.40;;;;;;;9.89;44.29;102491.09;1720022;81;21033;-64
2021/10/08 05:25:27;;;;;;;10.67;9.37;;;;;;;10.12;43.96;102492.28;1701285;83;21086;-65
2021/10/08 05:27:53;;;;;;;11.10;10.00;;;;;;;10.39;43.43;102488.22;1702677;83;21045;-65
2021/10/08 05:30:20;;;;;;;9.20;8.20;;;;;;;10.66;42.60;102494.26;1702749;83;21462;-64
2021/10/08 05:32:49;;;;;;;11.12;10.03;;;;;;;10.93;42.20;102491.47;1702855;83;21045;-63
2021/10/08 05:35:15;;;;;;;11.57;9.35;;;;;;;11.31;41.64;102482.63;1702105;82;21025;-63
2021/10/08 05:37:42;;;;;;;11.88;8.75;;;;;;;11.73;40.48;102485.48;1702395;84;21065;-64
2021/10/08 05:40:12;;;;;;;12.90;9.88;;;;;;;12.08;39.69;102484.86;1701670;83;21021;-66
2021/10/08 05:42:40;;;;;;;10.03;9.03;;;;;;;12.35;39.12;102484.55;1696057;83;21065;-68
2021/10/08 05:45:07;;;;;;;13.13;8.85;;;;;;;12.45;38.80;102492.88;1711196;83;21097;-68
2021/10/08 05:47:36;;;;;;;10.68;9.38;;;;;;;12.65;38.68;102494.11;1720524;82;21502;-65
2021/10/08 05:50:04;;;;;;;9.53;8.63;;;;;;;13.04;37.72;102478.64;1726253;83;21583;-66
2021/10/08 05:52:31;;;;;;;11.35;10.03;;;;;;;13.25;37.35;102494.41;1726765;83;21025;-68
2021/10/08 05:54:58;;;;;;;13.75;9.35;;;;;;;13.48;36.95;102489.11;1725085;82;21073;-67
2021/10/08 05:57:24;;;;;;;11.00;9.80;;;;;;;13.73;36.39;102491.47;1697190;83;21028;-68
2021/10/08 05:59:50;;;;;;;;;;;;;;;14.02;35.79;102491.17;1695514;84;21102;-66
2021/10/08 06:02:16;;;;;;;9.73;8.45;;;;;;;14.14;35.23;102493.91;1708165;82;20468;-73
2021/10/08 06:04:43;;;;;;;12.30;9.98;;;;;;;14.17;35.32;102492.27;1710323;82;21675;-71
2021/10/08 06:07:10;;;;;;;;;;;;;;;14.40;34.95;102489.02;1712034;82;21106;-68
2021/10/08 06:09:37;;;;;;;11.50;9.45;;;;;;;14.56;34.65;102488.23;1710692;82;20454;-67
2021/10/08 06:12:04;;;;;;;16.70;10.10;;;;;;;14.26;34.71;102490.95;1706985;82;22075;-66
2021/10/08 06:14:32;;;;;;;12.15;10.78;;;;;;;13.65;34.91;102490.91;1710011;82;20974;-68
2021/10/08 06:16:58;;;;;;;11.28;10.10;;;;;;;12.91;35.79;102492.06;1710689;82;20994;-71
2021/10/08 06:19:24;;;;;;;12.23;10.28;;;;;;;12.20;36.89;102493.03;1713626;82;21083;-66
2021/10/08 06:21:50;;;;;;;12.58;10.80;;;;;;;11.51;38.03;102494.16;1714755;82;21585;-66
2021/10/08 06:24:18;;;;;;;12.33;11.03;;;;;;;10.88;39.27;102500.70;1711044;82;20994;-68
2021/10/08 06:26:44;;;;;;;16.95;11.03;;;;;;;9.87;41.18;102498.84;1682508;82;20998;-67
2021/10/08 06:29:10;;;;;;;13.43;11.33;;;;;;;9.87;41.18;102498.84;1682895;84;21062;-68
2021/10/08 06:31:36;;;;;;;15.55;11.00;;;;;;;9.44;42.23;102499.34;1711208;82;21102;-70
2021/10/08 06:34:02;;;;;;;13.72;10.58;;;;;;;9.13;43.09;102505.84;1708022;82;21098;-71
2021/10/08 06:36:29;;;;;;;18.77;10.90;;;;;;;8.96;43.27;102502.39;1710799;82;21094;-66
2021/10/08 06:38:55;;;;;;;15.50;11.83;;;;;;;8.88;43.24;102496.36;1704829;82;21010;-68
2021/10/08 06:41:22;;;;;;;11.45;9.35;;;;;;;8.77;43.33;102496.39;1700896;82;21031;-68
2021/10/08 06:43:49;;;;;;;16.13;10.90;;;;;;;8.64;43.69;102495.19;1707932;82;21048;-66
2021/10/08 06:46:23;;;;;;;16.17;10.60;;;;;;;8.53;44.26;102491.22;1703734;82;22085;-66
2021/10/08 06:48:49;;;;;;;13.70;9.43;;;;;;;8.42;45.01;102488.56;1703939;82;20986;-67
2021/10/08 06:51:16;;;;;;;13.00;10.08;;;;;;;8.38;45.23;102498.09;1661047;85;21125;-66
2021/10/08 06:53:42;;;;;;;11.87;9.63;;;;;;;8.29;45.59;102497.48;1710642;82;21113;-65
2021/10/08 06:56:09;;;;;;;11.53;9.77;;;;;;;8.16;45.85;102498.92;1708254;82;21029;-69
2021/10/08 06:58:53;;;;;;;14.30;9.73;;;;;;;8.07;45.95;102501.45;1700933;82;22288;-66
2021/10/08 07:01:20;;;;;;;13.45;9.83;;;;;;;8.02;46.30;102492.50;1704470;82;21033;-67
2021/10/08 07:03:48;;;;;;;16.03;10.27;;;;;;;8.06;46.79;102493.98;1685072;84;21029;-65
2021/10/08 07:06:15;;;;;;;13.73;9.20;;;;;;;8.11;46.48;102489.62;1690136;84;21041;-67
2021/10/08 07:08:42;;;;;;;12.75;9.68;;;;;;;8.22;46.45;102497.59;1686127;84;21135;-67
2021/10/08 07:11:08;;;;;;;13.63;9.63;;;;;;;8.32;46.47;102495.90;1688547;83;21057;-66
2021/10/08 07:13:34;;;;;;;10.60;8.00;;;;;;;8.38;46.19;102491.45;1708286;82;21017;-65
2021/10/08 07:16:01;;;;;;;12.80;8.08;;;;;;;8.47;46.38;102497.03;1701018;82;21025;-66
2021/10/08 07:18:34;;;;;;;;;;;;;;;8.57;44.47;102499.33;1701223;82;20993;-66
2021/10/08 07:20:55;;;;;;;12.88;8.08;;;;;;;8.66;43.66;102486.61;1701766;82;20384;-65
2021/10/08 07:23:21;;;;;;;10.58;7.72;;;;;;;8.69;43.38;102481.05;1707544;82;21499;-67
2021/10/08 07:25:47;;;;;;;12.85;8.35;;;;;;;8.81;43.40;102485.02;1699492;82;21052;-66
2021/10/08 07:28:13;;;;;;;;;;;;;;;8.92;43.10;102479.67;1704371;82;21052;-68
2021/10/08 07:30:40;;;;;;;11.43;8.47;;;;;;;9.04;43.31;102476.03;1706315;82;20474;-66
2021/10/08 07:33:06;;;;;;;14.58;7.55;;;;;;;9.14;43.08;102476.95;1703941;82;21619;-68
2021/10/08 07:35:32;;;;;;;12.67;5.87;;;;;;;9.29;42.74;102474.84;1741223;81;21683;-66
2021/10/08 07:37:58;;;;;;;11.00;6.83;;;;;;;9.45;42.10;102485.53;1743905;81;21053;-64
2021/10/08 07:40:25;;;;;;;8.78;7.28;;;;;;;9.59;41.38;102472.38;1734258;81;21505;-65
2021/10/08 07:42:51;;;;;;;6.70;6.08;;;;;;;9.70;41.12;102470.52;1723764;81;21155;-66
2021/10/08 07:45:17;;;;;;;15.50;6.67;;;;;;;9.81;40.90;102477.57;1726640;79;21026;-66
2021/10/08 07:47:43;;;;;;;15.63;6.95;;;;;;;9.87;40.71;102469.08;1712149;82;21141;-66
2021/10/08 07:50:10;;;;;;;;;;;;;;;9.94;40.58;102474.70;1669973;85;21046;-65
2021/10/08 07:52:37;;;;;;;11.40;6.17;;;;;;;10.03;40.53;102473.08;1671804;84;20144;-66
2021/10/08 07:55:06;;;;;;;8.60;6.58;;;;;;;10.09;40.09;102480.05;1658583;83;21074;-66
2021/10/08 07:57:32;;;;;;;11.90;6.60;;;;;;;10.19;40.06;102465.45;1663196;85;21033;-65
2021/10/08 07:59:58;;;;;;;7.65;6.20;;;;;;;10.28;39.78;102471.32;1698934;83;21113;-64
2021/10/08 08:02:28;;;;;;;7.25;5.58;;;;;;;10.32;39.60;102480.77;1716334;82;21539;-65
2021/10/08 08:04:53;;;;;;;8.63;5.50;;;;;;;10.33;38.98;102495.77;1715106;82;21082;-65
2021/10/08 08:07:19;;;;;;;7.00;4.97;;;;;;;10.29;38.60;102489.48;1723982;82;21086;-64
2021/10/08 08:09:45;;;;;;;7.78;5.85;;;;;;;10.22;38.61;102494.98;1718058;82;21086;-67
2021/10/08 08:12:11;;;;;;;8.78;5.45;;;;;;;10.14;38.94;102488.49;1709849;82;21524;-67
2021/10/08 08:14:37;;;;;;;11.10;5.87;;;;;;;10.10;39.40;102476.91;1709786;83;21078;-65
2021/10/08 08:17:03;;;;;;;9.23;6.00;;;;;;;10.16;39.41;102487.03;1711231;82;21317;-65
2021/10/08 08:19:29;;;;;;;11.28;6.92;;;;;;;10.22;39.13;102486.98;1708958;83;21003;-66
2021/10/08 08:21:55;;;;;;;11.80;5.55;;;;;;;10.24;39.44;102478.37;1708730;83;21510;-65
2021/10/08 08:24:21;;;;;;;9.08;4.90;;;;;;;10.25;39.33;102468.08;1738711;82;21456;-65
2021/10/08 08:26:47;;;;;;;6.55;4.05;;;;;;;10.19;38.59;102489.44;1740345;82;21074;-66
2021/10/08 08:29:13;;;;;;;10.88;4.92;;;;;;;10.11;38.25;102502.10;1738361;82;21596;-66
2021/10/08 08:31:41;;;;;;;8.35;5.45;;;;;;;10.06;38.43;102486.16;1740987;82;21015;-66
2021/10/08 08:34:08;;;;;;;5.33;4.20;;;;;;;10.07;38.59;102471.84;1715749;82;21039;-67
2021/10/08 08:36:35;;;;;;;6.80;5.37;;;;;;;10.11;38.91;102473.25;1710089;82;21053;-65
2021/10/08 08:39:05;;;;;;;;;;;;;;;10.23;38.57;102475.36;1697897;83;21053;-65
2021/10/08 08:41:30;;;;;;;8.23;4.83;;;;;;;10.31;37.85;102484.39;1699797;82;20166;-66
2021/10/08 08:43:56;;;;;;;6.30;4.37;;;;;;;10.32;37.72;102486.09;1703445;82;21578;-66
2021/10/08 08:46:22;;;;;;;;;;;;;;;10.35;36.85;102486.30;1701813;83;21568;-66
2021/10/08 08:48:49;;;;;;;6.50;4.03;;;;;;;10.31;36.85;102468.40;1697562;83;20268;-64
2021/10/08 08:51:16;;;;;;;6.70;3.73;;;;;;;10.29;36.85;102478.82;1693531;83;21078;-64
2021/10/08 08:53:44;;;;;;;4.57;2.77;;;;;;;10.35;36.25;102489.47;1698923;83;21531;-66
2021/10/08 08:56:10;;;;;;;6.03;3.77;;;;;;;10.39;36.00;102474.89;1703770;82;21491;-65
2021/10/08 08:58:36;;;;;;;;;;;;;;;10.41;36.39;102471.59;1655746;85;21461;-67
2021/10/08 09:01:04;;;;;;;6.47;3.67;;;;;;;10.45;36.35;102477.00;1659867;85;20100;-67
2021/10/08 09:03:30;;;;;;;7.30;3.70;;;;;;;10.33;36.29;102462.94;1655872;85;21074;-64
2021/10/08 09:05:57;;;;;;;9.33;4.20;;;;;;;10.49;36.53;102472.61;1654499;86;21137;-67
2021/10/08 09:08:32;;;;;;;4.53;4.12;;;;;;;10.55;36.69;102466.36;1650577;86;21123;-67
2021/10/08 09:11:01;;;;;;;7.13;4.10;;;;;;;10.62;36.59;102461.67;1654019;86;21030;-66
2021/10/08 09:13:28;;;;;;;19.60;5.40;;;;;;;10.72;36.53;102465.73;1672040;84;21099;-65
2021/10/08 09:15:59;;;;;;;10.80;3.97;;;;;;;10.80;36.36;102463.70;1671222;84;21050;-67
2021/10/08 09:18:29;;;;;;;4.77;3.23;;;;;;;10.86;36.14;102454.64;1672313;84;21083;-67
2021/10/08 09:21:09;;;;;;;5.40;2.03;;;;;;;10.94;35.56;102447.27;1696225;83;21592;-65
2021/10/08 09:23:47;;;;;;;8.77;2.03;;;;;;;11.03;34.15;102458.45;1686053;84;21005;-65
2021/10/08 09:26:18;;;;;;;4.73;1.93;;;;;;;11.06;33.75;102464.02;1664408;85;21036;-68
2021/10/08 09:28:58;;;;;;;5.20;1.87;;;;;;;11.07;33.42;102447.01;1677425;84;21016;-67
2021/10/08 09:31:43;;;;;;;1.67;1.40;;;;;;;11.06;33.41;102445.34;1717006;83;21086;-66
2021/10/08 09:34:21;;;;;;;5.93;1.43;;;;;;;11.06;32.59;102436.83;1694697;82;21356;-66
2021/10/08 09:36:58;;;;;;;1.60;1.40;;;;;;;11.07;32.94;102429.16;1698005;84;21577;-64
2021/10/08 09:39:29;;;;;;;2.00;1.27;;;;;;;11.09;32.93;102460.59;1694821;84;21065;-67
2021/10/08 09:42:03;;;;;;;2.57;1.57;;;;;;;11.09;32.93;102435.70;1698480;84;20996;-67
2021/10/08 09:44:32;;;;;;;3.27;1.70;;;;;;;11.03;33.23;102431.77;1700510;83;21010;-68
2021/10/08 09:47:15;;;;;;;4.07;1.63;;;;;;;10.98;33.44;102423.83;1678095;85;21074;-65
2021/10/08 09:49:43;;;;;;;2.33;2.13;;;;;;;10.96;33.76;102417.29;1667645;85;21510;-67
2021/10/08 09:52:30;;;;;;;3.93;3.23;;;;;;;10.98;34.00;102429.16;1678182;85;20999;-66
2021/10/08 09:55:04;;;;;;;;;;;;;;;11.00;34.19;102420.52;1672075;85;20984;-67
2021/10/08 09:57:50;;;;;;;2.60;2.30;;;;;;;11.02;34.01;102422.09;1676523;85;20182;-67
2021/10/08 10:00:46;;;;;;;5.42;2.22;;;;;;;11.00;34.04;102423.19;1706625;83;21688;-65
2021/10/08 10:03:16;;;;;;;4.20;3.00;;;;;;;11.02;34.46;102403.88;1703352;83;21490;-65
2021/10/08 10:05:45;;;;;;;3.60;2.17;;;;;;;11.08;34.20;102406.84;1714410;83;21072;-66
2021/10/08 10:08:12;;;;;;;2.90;2.13;;;;;;;11.14;33.92;102400.09;1714136;83;21022;-68
2021/10/08 10:10:39;;;;;;;8.30;1.93;;;;;;;11.18;33.71;102406.83;1714870;83;21024;-66
2021/10/08 10:13:09;;;;;;;3.13;1.70;;;;;;;11.20;33.16;102391.52;1681622;83;21969;-65
2021/10/08 10:15:40;;;;;;;2.60;1.50;;;;;;;11.21;33.04;102413.23;1667989;85;20931;-64
2021/10/08 10:18:13;;;;;;;4.63;1.40;;;;;;;11.23;32.61;102397.91;1681811;85;21082;-66
2021/10/08 10:20:46;;;;;;;1.57;1.10;;;;;;;11.20;32.61;102386.17;1716781;83;21615;-67
2021/10/08 10:23:15;;;;;;;3.83;1.50;;;;;;;11.24;32.86;102394.74;1711546;83;21060;-67
2021/10/08 10:25:42;;;;;;;3.07;1.50;;;;;;;11.32;32.50;102386.88;1710977;82;20974;-62
2021/10/08 10:28:09;;;;;;;6.83;1.33;;;;;;;11.37;32.57;102377.09;1714840;82;21022;-65
2021/10/08 10:30:35;;;;;;;8.95;1.32;;;;;;;11.41;32.07;102426.05;1711354;83;21054;-68
2021/10/08 10:33:03;;;;;;;3.05;1.20;;;;;;;11.43;31.95;102380.05;1711022;83;21444;-65
2021/10/08 10:35:58;;;;;;;5.17;1.40;;;;;;;11.44;31.67;102368.36;1714469;83;21494;-66
2021/10/08 10:38:31;;;;;;;3.47;1.10;;;;;;;11.46;31.95;102370.39;1708949;83;21342;-67
2021/10/08 10:41:11;;;;;;;2.97;0.80;;;;;;;11.50;31.27;102371.78;1713564;83;21573;-66
2021/10/08 10:43:51;;;;;;;2.63;0.97;;;;;;;11.54;31.18;102395.55;1712553;83;21042;-65
2021/10/08 10:47:37;;;;;;;5.00;1.30;;;;;;;11.55;30.87;102377.20;1702644;82;20966;-67
2021/10/08 10:52:03;;;;;;;1.73;1.00;;;;;;;11.55;31.42;102362.52;1705850;83;21057;-67
2021/10/08 10:54:43;;;;;;;3.27;1.13;;;;;;;11.59;31.15;102358.56;1711328;83;20947;-69
2021/10/08 10:57:14;;;;;;;1.50;1.13;;;;;;;11.63;31.28;102352.77;1717317;82;21003;-66
2021/10/08 10:59:41;;;;;;;1.70;0.72;;;;;;;11.68;30.47;102379.06;1676863;83;21025;-66
2021/10/08 11:02:16;;;;;;;1.95;1.00;;;;;;;11.72;30.34;102391.64;1709855;82;21503;-67
2021/10/08 11:04:51;;;;;;;3.13;0.70;;;;;;;11.72;29.82;102384.45;1715759;82;20990;-66
2021/10/08 11:07:22;;;;;;;10.13;0.80;;;;;;;11.67;29.38;102378.20;1717685;82;21479;-64
2021/10/08 11:10:08;;;;;;;5.83;0.70;;;;;;;11.63;29.58;102373.31;1713591;82;20980;-67
2021/10/08 11:12:42;;;;;;;1.53;0.87;;;;;;;11.60;29.58;102362.91;1716112;81;21009;-68
2021/10/08 11:15:20;;;;;;;5.97;1.07;;;;;;;11.56;29.58;102378.87;1697607;82;20982;-65
2021/10/08 11:17:53;;;;;;;1.33;0.40;;;;;;;11.53;29.73;102351.11;1714888;82;20950;-67
2021/10/08 11:20:31;;;;;;;4.37;0.70;;;;;;;11.56;29.64;102352.17;1717874;82;20975;-66
2021/10/08 11:23:21;;;;;;;2.37;0.80;;;;;;;11.60;29.67;102357.56;1702235;81;21557;-68
2021/10/08 11:25:55;;;;;;;5.10;0.90;;;;;;;11.64;29.49;102351.80;1665908;85;21051;-65
2021/10/08 11:28:31;;;;;;;3.63;1.03;;;;;;;11.69;28.77;102353.52;1671376;84;21581;-67
2021/10/08 11:30:58;;;;;;;2.65;0.40;;;;;;;11.75;28.36;102364.11;1678057;84;21003;-66
2021/10/08 11:33:42;;;;;;;2.87;0.60;;;;;;;11.76;28.27;102356.95;1679269;84;21006;-66
2021/10/08 11:36:30;;;;;;;3.25;0.95;;;;;;;11.73;28.34;102371.43;1683145;84;20967;-66
2021/10/08 11:39:15;;;;;;;2.58;0.65;;;;;;;11.70;28.21;102369.07;1676294;85;21039;-67
2021/10/08 11:42:08;;;;;;;2.30;0.60;;;;;;;11.68;28.49;102361.20;1678915;84;21014;-66